Time;durP1;ratioP1;P1;durP2;ratioP2;P2;SDS_P1;SDS_P2;PMS_P1;PMS_P2;Temp;Humidity;BMP_temperature;BMP_pressure;BME280_temperature;BME280_humidity;BME280_pressure;Samples;Min_cycle;Max_cycle;Signal;HPM_P1;HPM_P2
2023/09/04 00:00:05;;;;;;;0.10;0.10;;;;;;;11.64;100.00;102589.25;5112701;28;20459;-51
2023/09/04 00:02:30;;;;;;;0.10;0.10;;;;;;;11.73;100.00;102594.03;5113002;28;20378;-51
2023/09/04 00:04:55;;;;;;;0.20;0.20;;;;;;;11.66;100.00;102595.41;5113231;28;20023;-50
2023/09/04 00:07:20;;;;;;;0.10;0.10;;;;;;;11.81;100.00;102590.13;5112268;28;20085;-50
2023/09/04 00:09:46;;;;;;;0.10;0.10;;;;;;;11.73;100.00;102584.56;5119102;28;20076;-51
2023/09/04 00:12:11;;;;;;;0.10;0.10;;;;;;;11.75;100.00;102584.63;5119807;28;20028;-46
2023/09/04 00:14:36;;;;;;;0.10;0.10;;;;;;;11.72;100.00;102581.91;5119411;27;20028;-51
2023/09/04 00:17:02;;;;;;;0.20;0.20;;;;;;;11.66;100.00;102575.63;5120041;28;20474;-52
2023/09/04 00:19:28;;;;;;;0.20;0.10;;;;;;;11.66;100.00;102567.00;5119738;27;20027;-49
2023/09/04 00:21:53;;;;;;;0.10;0.10;;;;;;;11.65;100.00;102567.78;5119201;27;20046;-50
2023/09/04 00:24:20;;;;;;;0.10;0.10;;;;;;;11.62;100.00;102577.94;5119722;27;20032;-52
2023/09/04 00:26:45;;;;;;;0.10;0.10;;;;;;;11.60;100.00;102579.56;5120212;27;20047;-50
2023/09/04 00:29:11;;;;;;;0.10;0.10;;;;;;;11.53;100.00;102574.06;5119216;27;20407;-51
2023/09/04 00:31:36;;;;;;;0.15;0.15;;;;;;;11.39;100.00;102572.44;5120000;27;20080;-51
2023/09/04 00:34:02;;;;;;;0.10;0.10;;;;;;;11.42;100.00;102572.59;5119852;27;20027;-51
2023/09/04 00:36:27;;;;;;;0.10;0.10;;;;;;;11.39;100.00;102575.03;5119075;27;20016;-50
2023/09/04 00:38:52;;;;;;;0.17;0.17;;;;;;;11.37;100.00;102574.03;5120081;28;20024;-51
2023/09/04 00:41:19;;;;;;;0.10;0.10;;;;;;;11.27;100.00;102574.34;5119643;28;20425;-50
2023/09/04 00:43:44;;;;;;;0.10;0.10;;;;;;;11.37;100.00;102579.22;5119504;27;20076;-47
2023/09/04 00:46:11;;;;;;;0.20;0.20;;;;;;;11.24;100.00;102577.66;5119725;28;20406;-51
2023/09/04 00:48:39;;;;;;;0.20;0.20;;;;;;;10.96;100.00;102582.97;5119798;27;20131;-51
2023/09/04 00:51:05;;;;;;;0.10;0.10;;;;;;;10.85;100.00;102584.97;5119453;27;20032;-51
2023/09/04 00:53:32;;;;;;;0.17;0.17;;;;;;;10.87;100.00;102580.78;5119622;27;20058;-51
2023/09/04 00:56:00;;;;;;;0.10;0.10;;;;;;;10.99;100.00;102575.44;5118975;27;20043;-50
2023/09/04 00:58:25;;;;;;;0.20;0.20;;;;;;;10.98;100.00;102574.53;5119286;27;20483;-50
2023/09/04 01:00:51;;;;;;;0.20;0.20;;;;;;;10.95;100.00;102576.03;5119651;27;20016;-51
2023/09/04 01:03:18;;;;;;;0.20;0.20;;;;;;;10.86;100.00;102587.63;5118519;27;20099;-52
2023/09/04 01:05:44;;;;;;;0.20;0.20;;;;;;;11.02;100.00;102578.16;5119487;27;20055;-50
2023/09/04 01:08:09;;;;;;;0.10;0.10;;;;;;;10.90;100.00;102572.31;5119801;28;20062;-48
2023/09/04 01:10:50;;;;;;;0.10;0.10;;;;;;;10.87;100.00;102585.94;5118552;27;20080;-50
2023/09/04 01:13:21;;;;;;;0.17;0.17;;;;;;;10.73;100.00;102582.59;5119314;27;20382;-51
2023/09/04 01:15:47;;;;;;;0.20;0.20;;;;;;;10.50;100.00;102582.16;5119575;28;20050;-50
2023/09/04 01:18:13;;;;;;;0.15;0.15;;;;;;;10.45;100.00;102578.41;5118416;28;20055;-51
2023/09/04 01:20:39;;;;;;;0.10;0.10;;;;;;;10.43;100.00;102577.47;5116755;27;20072;-50
2023/09/04 01:23:04;;;;;;;0.20;0.20;;;;;;;10.25;100.00;102572.09;5116224;28;20031;-52
2023/09/04 01:25:49;;;;;;;0.10;0.10;;;;;;;10.24;100.00;102577.13;5115182;28;20031;-49
2023/09/04 01:28:31;;;;;;;0.20;0.20;;;;;;;10.24;100.00;102579.69;5115851;28;20084;-50
2023/09/04 01:31:24;;;;;;;0.20;0.20;;;;;;;10.35;100.00;102576.06;5115521;28;20016;-50
2023/09/04 01:33:55;;;;;;;0.20;0.20;;;;;;;10.14;100.00;102574.00;5112959;28;20036;-51
2023/09/04 01:36:23;;;;;;;0.20;0.20;;;;;;;10.04;100.00;102575.16;5115799;28;20057;-50
2023/09/04 01:38:49;;;;;;;0.20;0.20;;;;;;;10.14;100.00;102575.72;5115283;28;20027;-51
2023/09/04 01:41:15;;;;;;;0.10;0.10;;;;;;;10.22;100.00;102574.47;5115655;28;20510;-51
2023/09/04 01:43:40;;;;;;;0.20;0.20;;;;;;;10.29;100.00;102568.88;5116091;28;20096;-51
2023/09/04 01:46:05;;;;;;;0.20;0.20;;;;;;;10.44;100.00;102568.03;5115033;28;20027;-50
2023/09/04 01:48:31;;;;;;;0.13;0.13;;;;;;;10.43;100.00;102567.16;5115554;28;20032;-52
2023/09/04 01:50:56;;;;;;;0.20;0.20;;;;;;;10.33;100.00;102562.22;5115684;28;20027;-50
2023/09/04 01:53:22;;;;;;;0.10;0.10;;;;;;;10.41;100.00;102548.13;5114367;28;20351;-51
2023/09/04 01:55:48;;;;;;;0.20;0.20;;;;;;;10.30;100.00;102556.88;5115347;28;20495;-51
2023/09/04 01:58:13;;;;;;;0.10;0.10;;;;;;;10.38;100.00;102560.84;5115345;28;20020;-50
2023/09/04 02:00:38;;;;;;;0.20;0.20;;;;;;;10.22;100.00;102559.00;5114921;28;20024;-51
2023/09/04 02:03:04;;;;;;;0.20;0.20;;;;;;;10.26;100.00;102565.22;5115609;28;20147;-51
2023/09/04 02:05:29;;;;;;;0.20;0.20;;;;;;;10.24;100.00;102561.66;5115078;28;20039;-49
2023/09/04 02:07:54;;;;;;;0.20;0.20;;;;;;;10.14;100.00;102557.69;5114572;28;20035;-50
2023/09/04 02:10:22;;;;;;;0.17;0.17;;;;;;;10.15;100.00;102559.47;5115330;28;20038;-50
2023/09/04 02:12:48;;;;;;;0.20;0.20;;;;;;;9.88;100.00;102567.31;5115343;28;20016;-49
2023/09/04 02:15:13;;;;;;;0.10;0.10;;;;;;;9.71;100.00;102563.72;5114330;28;20061;-50
2023/09/04 02:17:39;;;;;;;0.10;0.10;;;;;;;9.65;100.00;102556.50;5115347;28;20075;-50
2023/09/04 02:20:05;;;;;;;0.10;0.10;;;;;;;9.61;100.00;102551.09;5114974;28;20076;-50
2023/09/04 02:22:30;;;;;;;0.15;0.15;;;;;;;9.70;100.00;102556.78;5114818;28;20020;-51
2023/09/04 02:24:55;;;;;;;0.20;0.20;;;;;;;9.83;100.00;102548.13;5115003;28;20027;-50
2023/09/04 02:27:21;;;;;;;0.20;0.20;;;;;;;9.73;100.00;102541.53;5113910;28;20024;-51
2023/09/04 02:29:46;;;;;;;0.20;0.20;;;;;;;9.87;100.00;102553.53;5114966;28;20015;-50
2023/09/04 02:32:11;;;;;;;0.20;0.20;;;;;;;9.67;100.00;102541.13;5114735;28;20073;-48
2023/09/04 02:34:40;;;;;;;0.20;0.20;;;;;;;9.68;100.00;102537.78;5114208;28;20024;-52
2023/09/04 02:37:05;;;;;;;0.20;0.20;;;;;;;9.55;100.00;102542.19;5114818;28;20085;-50
2023/09/04 02:39:30;;;;;;;0.20;0.20;;;;;;;9.49;100.00;102543.47;5114457;28;20567;-51
2023/09/04 02:41:56;;;;;;;0.20;0.20;;;;;;;9.36;100.00;102544.41;5114112;28;20144;-49
2023/09/04 02:44:21;;;;;;;0.20;0.20;;;;;;;9.42;100.00;102544.81;5114257;28;20383;-50
2023/09/04 02:46:46;;;;;;;0.10;0.10;;;;;;;9.45;100.00;102542.44;5114824;28;20051;-51
2023/09/04 02:49:12;;;;;;;0.10;0.10;;;;;;;9.50;100.00;102538.47;5113573;28;20360;-50
2023/09/04 02:51:37;;;;;;;0.20;0.20;;;;;;;9.46;100.00;102531.31;5114445;28;20058;-51
2023/09/04 02:54:02;;;;;;;0.13;0.13;;;;;;;9.50;100.00;102538.47;5114710;28;20102;-50
2023/09/04 02:56:28;;;;;;;0.47;0.22;;;;;;;9.41;100.00;102537.88;5113133;28;20127;-50
2023/09/04 02:58:53;;;;;;;0.20;0.20;;;;;;;9.41;100.00;102532.72;5114505;28;20034;-51
2023/09/04 03:01:18;;;;;;;0.10;0.10;;;;;;;9.31;100.00;102531.28;5114165;28;20455;-52
2023/09/04 03:03:44;;;;;;;0.20;0.20;;;;;;;9.30;100.00;102528.63;5113639;28;20015;-51
2023/09/04 03:06:10;;;;;;;0.20;0.20;;;;;;;9.21;100.00;102536.66;5114062;28;20027;-49
2023/09/04 03:08:36;;;;;;;0.20;0.20;;;;;;;9.18;100.00;102534.78;5114087;28;20028;-50
2023/09/04 03:11:01;;;;;;;0.10;0.10;;;;;;;9.17;100.00;102521.81;5113550;28;20065;-52
2023/09/04 03:13:27;;;;;;;0.20;0.20;;;;;;;9.27;100.00;102526.75;5114020;28;20019;-51
2023/09/04 03:15:53;;;;;;;0.20;0.20;;;;;;;9.37;100.00;102525.63;5114314;28;20019;-50
2023/09/04 03:18:18;;;;;;;0.20;0.20;;;;;;;9.40;100.00;102525.81;5112840;28;20112;-51
2023/09/04 03:20:43;;;;;;;0.20;0.20;;;;;;;9.29;100.00;102511.41;5114020;28;20037;-49
2023/09/04 03:23:09;;;;;;;0.20;0.20;;;;;;;9.30;100.00;102508.03;5114195;28;20042;-51
2023/09/04 03:25:35;;;;;;;0.20;0.20;;;;;;;9.39;100.00;102503.44;5112869;28;20023;-52
2023/09/04 03:28:01;;;;;;;0.20;0.20;;;;;;;9.58;100.00;102504.56;5114066;28;20038;-51
2023/09/04 03:30:27;;;;;;;0.20;0.20;;;;;;;9.64;100.00;102507.50;5112786;28;20023;-47
2023/09/04 03:32:52;;;;;;;0.20;0.20;;;;;;;9.56;100.00;102505.34;5113735;28;20076;-51
2023/09/04 03:35:17;;;;;;;0.20;0.20;;;;;;;9.66;100.00;102495.63;5113383;28;20015;-51
2023/09/04 03:37:43;;;;;;;0.20;0.20;;;;;;;9.62;100.00;102493.63;5113172;28;20106;-51
2023/09/04 03:40:18;;;;;;;0.20;0.20;;;;;;;9.71;100.00;102489.94;5113891;28;20122;-52
2023/09/04 03:42:44;;;;;;;0.20;0.20;;;;;;;9.72;100.00;102498.53;5113513;28;20095;-50
2023/09/04 03:45:09;;;;;;;0.20;0.20;;;;;;;9.82;100.00;102493.13;5112673;28;20118;-52
2023/09/04 03:47:34;;;;;;;0.20;0.20;;;;;;;9.87;100.00;102496.88;5113286;28;20066;-52
2023/09/04 03:50:00;;;;;;;0.20;0.20;;;;;;;9.88;100.00;102501.22;5113431;28;20011;-50
2023/09/04 03:52:25;;;;;;;0.20;0.20;;;;;;;9.87;100.00;102503.72;5112695;28;20039;-48
2023/09/04 03:54:50;;;;;;;0.20;0.20;;;;;;;9.94;100.00;102499.81;5113486;28;20040;-51
2023/09/04 03:57:16;;;;;;;0.20;0.20;;;;;;;9.90;100.00;102501.31;5113263;28;20048;-51
2023/09/04 03:59:41;;;;;;;0.20;0.20;;;;;;;9.87;100.00;102498.56;5112639;28;20492;-51
2023/09/04 04:02:06;;;;;;;0.20;0.20;;;;;;;9.93;100.00;102488.63;5113262;28;20403;-51
2023/09/04 04:04:31;;;;;;;0.20;0.20;;;;;;;9.98;100.00;102491.47;5113033;28;20028;-51
2023/09/04 04:06:57;;;;;;;0.20;0.20;;;;;;;10.03;100.00;102487.47;5112539;28;20027;-51
2023/09/04 04:09:22;;;;;;;0.20;0.20;;;;;;;10.02;100.00;102489.16;5113275;28;20023;-50
2023/09/04 04:11:47;;;;;;;0.10;0.10;;;;;;;9.91;100.00;102487.66;5113551;28;20023;-52
2023/09/04 04:14:13;;;;;;;0.20;0.20;;;;;;;9.99;100.00;102486.44;5112598;28;20027;-51
2023/09/04 04:16:38;;;;;;;0.20;0.20;;;;;;;10.01;100.00;102476.22;5113200;28;20016;-51
2023/09/04 04:19:04;;;;;;;0.22;0.22;;;;;;;9.94;100.00;102474.06;5113225;28;20058;-49
2023/09/04 04:21:29;;;;;;;0.10;0.10;;;;;;;9.98;100.00;102481.16;5112253;28;20023;-49
2023/09/04 04:23:54;;;;;;;0.20;0.20;;;;;;;9.95;100.00;102486.16;5113179;28;20046;-49
2023/09/04 04:26:20;;;;;;;0.17;0.17;;;;;;;9.99;100.00;102483.84;5112878;28;20031;-49
2023/09/04 04:28:45;;;;;;;0.10;0.10;;;;;;;9.93;100.00;102487.72;5112500;28;20105;-49
2023/09/04 04:31:10;;;;;;;0.20;0.20;;;;;;;9.91;100.00;102485.06;5113199;28;20030;-50
2023/09/04 04:33:35;;;;;;;0.20;0.20;;;;;;;9.93;100.00;102485.16;5112676;28;20110;-50
2023/09/04 04:36:03;;;;;;;0.20;0.20;;;;;;;9.86;100.00;102482.25;5112138;28;20016;-51
2023/09/04 04:38:28;;;;;;;;;;;;;;;9.98;100.00;102488.88;5113157;28;20396;-50
2023/09/04 04:40:56;;;;;;;0.20;0.20;;;;;;;9.86;100.00;102489.97;5112189;28;20006;-50
2023/09/04 04:43:21;;;;;;;0.10;0.10;;;;;;;9.85;100.00;102484.72;5112742;28;20270;-50
2023/09/04 04:45:46;;;;;;;0.20;0.20;;;;;;;9.74;100.00;102491.81;5112862;28;20372;-51
2023/09/04 04:48:11;;;;;;;0.20;0.20;;;;;;;9.70;100.00;102489.84;5111682;28;20023;-47
2023/09/04 04:50:37;;;;;;;0.20;0.20;;;;;;;9.72;100.00;102483.09;5113135;28;20534;-48
2023/09/04 04:53:03;;;;;;;0.20;0.20;;;;;;;9.63;100.00;102490.28;5113038;28;20035;-50
2023/09/04 04:55:28;;;;;;;0.10;0.10;;;;;;;9.67;100.00;102479.34;5112315;28;20436;-51
2023/09/04 04:57:53;;;;;;;0.15;0.15;;;;;;;9.56;100.00;102477.03;5116833;28;20024;-51
2023/09/04 05:00:19;;;;;;;0.20;0.20;;;;;;;9.65;100.00;102480.97;5116448;28;20027;-51
2023/09/04 05:02:44;;;;;;;0.20;0.20;;;;;;;9.71;100.00;102476.19;5115765;28;20077;-50
2023/09/04 05:05:10;;;;;;;0.20;0.20;;;;;;;9.76;100.00;102469.63;5116766;28;20024;-47
2023/09/04 05:07:37;;;;;;;0.20;0.20;;;;;;;9.77;100.00;102471.38;5116731;27;20035;-50
2023/09/04 05:10:02;;;;;;;0.20;0.20;;;;;;;9.77;100.00;102475.66;5115858;28;20026;-49
2023/09/04 05:12:28;;;;;;;0.20;0.20;;;;;;;9.74;100.00;102478.94;5116445;28;20572;-50
2023/09/04 05:14:53;;;;;;;0.20;0.20;;;;;;;9.85;100.00;102474.41;5116459;28;20157;-47
2023/09/04 05:17:18;;;;;;;0.20;0.20;;;;;;;9.93;100.00;102480.00;5115242;28;20348;-47
2023/09/04 05:19:44;;;;;;;0.30;0.30;;;;;;;9.94;100.00;102484.38;5116180;28;20016;-51
2023/09/04 05:22:09;;;;;;;0.20;0.20;;;;;;;10.04;100.00;102486.69;5116274;28;20028;-50
2023/09/04 05:24:35;;;;;;;0.10;0.10;;;;;;;10.13;100.00;102483.75;5115082;28;20026;-46
2023/09/04 05:27:02;;;;;;;0.20;0.20;;;;;;;10.15;100.00;102484.75;5116261;28;20033;-49
2023/09/04 05:29:27;;;;;;;0.20;0.20;;;;;;;10.12;100.00;102485.47;5115808;28;20396;-48
2023/09/04 05:31:53;;;;;;;0.20;0.20;;;;;;;10.12;100.00;102485.47;5115238;28;20466;-49
2023/09/04 05:34:19;;;;;;;0.13;0.13;;;;;;;10.15;100.00;102477.88;5115946;28;20023;-46
2023/09/04 05:36:44;;;;;;;0.20;0.20;;;;;;;10.18;100.00;102479.75;5116438;28;20016;-51
2023/09/04 05:39:10;;;;;;;0.20;0.20;;;;;;;10.24;100.00;102476.63;5115238;28;20149;-50
2023/09/04 05:41:38;;;;;;;0.20;0.20;;;;;;;10.37;100.00;102480.03;5115695;27;20462;-46
2023/09/04 05:44:04;;;;;;;0.20;0.20;;;;;;;10.38;100.00;102478.38;5115681;28;20020;-47
2023/09/04 05:46:32;;;;;;;0.10;0.10;;;;;;;10.41;100.00;102486.25;5115332;28;20027;-46
2023/09/04 05:48:58;;;;;;;0.20;0.20;;;;;;;10.47;100.00;102488.28;5115678;28;20416;-51
2023/09/04 05:51:23;;;;;;;0.20;0.20;;;;;;;10.52;100.00;102482.59;5114824;28;20032;-47
2023/09/04 05:53:49;;;;;;;0.20;0.20;;;;;;;10.59;100.00;102493.22;5115665;28;20475;-49
2023/09/04 05:56:15;;;;;;;0.20;0.20;;;;;;;10.61;100.00;102492.50;5115140;28;20498;-51
2023/09/04 05:58:46;;;;;;;0.10;0.10;;;;;;;10.69;100.00;102498.09;5114755;28;20126;-48
2023/09/04 06:01:12;;;;;;;0.10;0.10;;;;;;;10.76;100.00;102495.06;5115196;28;20031;-47
2023/09/04 06:03:38;;;;;;;0.20;0.20;;;;;;;10.80;100.00;102499.59;5115631;28;20015;-47
2023/09/04 06:06:04;;;;;;;0.15;0.15;;;;;;;10.85;100.00;102494.69;5114112;28;20062;-51
2023/09/04 06:08:30;;;;;;;0.15;0.15;;;;;;;10.91;100.00;102489.88;5115135;28;20058;-47
2023/09/04 06:10:56;;;;;;;0.15;0.15;;;;;;;10.97;100.00;102497.06;5115353;28;20036;-51
2023/09/04 06:13:21;;;;;;;0.20;0.20;;;;;;;11.05;100.00;102498.34;5114156;28;20023;-50
2023/09/04 06:15:50;;;;;;;0.20;0.20;;;;;;;11.14;100.00;102495.38;5115253;28;20035;-52
2023/09/04 06:18:16;;;;;;;0.10;0.10;;;;;;;11.26;100.00;102489.97;5114847;28;20406;-51
2023/09/04 06:20:41;;;;;;;0.20;0.20;;;;;;;11.35;100.00;102486.22;5114452;28;20027;-51
2023/09/04 06:23:06;;;;;;;0.20;0.20;;;;;;;11.47;100.00;102491.13;5115088;28;20023;-48
2023/09/04 06:25:39;;;;;;;0.20;0.20;;;;;;;11.61;100.00;102493.56;5114642;28;20023;-50
2023/09/04 06:28:08;;;;;;;0.20;0.20;;;;;;;11.80;100.00;102491.09;5114189;27;20028;-50
2023/09/04 06:30:34;;;;;;;0.10;0.10;;;;;;;11.88;100.00;102494.06;5114827;28;20030;-46
2023/09/04 06:33:00;;;;;;;0.10;0.10;;;;;;;11.97;100.00;102488.53;5115194;28;20016;-51
2023/09/04 06:35:25;;;;;;;0.10;0.10;;;;;;;12.12;100.00;102489.28;5114040;28;20027;-51
2023/09/04 06:37:50;;;;;;;0.20;0.20;;;;;;;12.22;100.00;102494.91;5114829;28;20425;-51
2023/09/04 06:40:16;;;;;;;0.13;0.13;;;;;;;12.33;100.00;102493.72;5114566;28;20148;-51
2023/09/04 06:42:41;;;;;;;0.10;0.10;;;;;;;12.46;100.00;102501.28;5113859;28;20060;-51
2023/09/04 06:45:07;;;;;;;0.10;0.10;;;;;;;12.61;100.00;102489.88;5114481;28;20371;-52
2023/09/04 06:47:32;;;;;;;0.20;0.20;;;;;;;12.70;100.00;102492.91;5113461;28;20032;-50
2023/09/04 06:49:57;;;;;;;0.20;0.20;;;;;;;12.84;100.00;102490.97;5114690;28;20024;-51
2023/09/04 06:52:23;;;;;;;0.10;0.10;;;;;;;12.93;100.00;102482.75;5114381;28;20020;-49
2023/09/04 06:54:48;;;;;;;0.10;0.10;;;;;;;13.10;100.00;102492.16;5113491;28;20519;-51
2023/09/04 06:57:15;;;;;;;0.10;0.10;;;;;;;13.20;100.00;102488.28;5114027;28;20400;-51
2023/09/04 06:59:40;;;;;;;0.20;0.20;;;;;;;13.35;100.00;102490.69;5114577;28;20019;-52
2023/09/04 07:02:05;;;;;;;0.20;0.20;;;;;;;13.45;100.00;102479.97;5113349;28;20084;-50
2023/09/04 07:04:31;;;;;;;0.10;0.10;;;;;;;13.58;100.00;102476.19;5114101;28;20024;-51
2023/09/04 07:06:56;;;;;;;0.10;0.10;;;;;;;13.67;100.00;102475.69;5114427;28;20028;-50
2023/09/04 07:09:21;;;;;;;0.10;0.10;;;;;;;13.85;100.00;102479.91;5113202;28;20028;-51
2023/09/04 07:11:47;;;;;;;0.10;0.10;;;;;;;13.99;100.00;102478.75;5114193;28;20107;-46
2023/09/04 07:14:13;;;;;;;0.10;0.10;;;;;;;14.12;100.00;102483.63;5113768;28;20481;-51
2023/09/04 07:16:38;;;;;;;0.10;0.10;;;;;;;14.29;100.00;102471.38;5113393;28;20039;-51
2023/09/04 07:19:04;;;;;;;0.20;0.10;;;;;;;14.36;100.00;102475.09;5113327;28;20024;-50
2023/09/04 07:21:29;;;;;;;0.10;0.10;;;;;;;14.61;100.00;102473.47;5113562;28;20031;-47
2023/09/04 07:23:55;;;;;;;0.10;0.10;;;;;;;14.80;100.00;102473.38;5113212;28;20020;-51
2023/09/04 07:26:20;;;;;;;0.10;0.10;;;;;;;14.83;100.00;102477.78;5113395;28;20028;-51
2023/09/04 07:28:45;;;;;;;0.13;0.13;;;;;;;14.98;100.00;102467.13;5113776;28;20118;-52
2023/09/04 07:31:17;;;;;;;0.10;0.10;;;;;;;15.10;100.00;102480.53;5113049;28;20526;-51
2023/09/04 07:33:43;;;;;;;0.10;0.10;;;;;;;15.20;100.00;102473.13;5113837;28;20020;-50
2023/09/04 07:36:08;;;;;;;0.10;0.10;;;;;;;15.43;100.00;102477.41;5113886;28;20355;-52
2023/09/04 07:38:34;;;;;;;0.10;0.10;;;;;;;15.48;100.00;102488.84;5112690;28;20015;-50
2023/09/04 07:41:00;;;;;;;0.10;0.10;;;;;;;15.63;100.00;102485.03;5113578;27;20019;-46
2023/09/04 07:43:25;;;;;;;0.10;0.10;;;;;;;15.80;100.00;102485.59;5113509;28;20015;-52
2023/09/04 07:45:52;;;;;;;0.10;0.10;;;;;;;15.89;100.00;102485.06;5112815;28;20106;-51
2023/09/04 07:48:18;;;;;;;0.10;0.10;;;;;;;16.08;100.00;102489.19;5113313;28;20046;-46
2023/09/04 07:50:43;;;;;;;0.10;0.10;;;;;;;16.22;100.00;102490.50;5112899;28;20376;-50
2023/09/04 07:53:09;;;;;;;0.10;0.10;;;;;;;16.38;100.00;102493.59;5113429;28;20103;-52
2023/09/04 07:55:34;;;;;;;0.10;0.10;;;;;;;16.50;100.00;102485.31;5113032;28;20058;-46
2023/09/04 07:57:59;;;;;;;0.10;0.10;;;;;;;16.58;100.00;102482.09;5112795;28;20514;-50
2023/09/04 08:00:25;;;;;;;0.10;0.10;;;;;;;16.75;100.00;102474.81;5113253;28;20028;-47
2023/09/04 08:02:51;;;;;;;0.10;0.10;;;;;;;16.92;100.00;102487.50;5113511;28;20043;-51
2023/09/04 08:05:16;;;;;;;0.03;0.03;;;;;;;16.99;100.00;102476.44;5112253;28;20055;-51
2023/09/04 08:07:41;;;;;;;0.08;0.08;;;;;;;17.07;100.00;102472.31;5113393;28;20024;-52
2023/09/04 08:10:07;;;;;;;0.00;0.00;;;;;;;17.16;100.00;102479.50;5113319;28;20019;-46
2023/09/04 08:12:35;;;;;;;0.10;0.10;;;;;;;17.22;100.00;102481.38;5112342;28;20031;-52
2023/09/04 08:15:00;;;;;;;0.10;0.10;;;;;;;17.42;100.00;102475.00;5113473;28;20050;-51
2023/09/04 08:17:26;;;;;;;0.00;0.00;;;;;;;17.53;100.00;102477.94;5112890;28;20379;-51
2023/09/04 08:19:51;;;;;;;0.10;0.10;;;;;;;17.75;100.00;102475.84;5112476;28;20020;-51
2023/09/04 08:22:17;;;;;;;0.10;0.10;;;;;;;17.83;100.00;102476.06;5112990;28;20098;-48
2023/09/04 08:24:42;;;;;;;0.10;0.10;;;;;;;17.94;100.00;102474.66;5112947;28;20073;-51
2023/09/04 08:27:07;;;;;;;0.00;0.00;;;;;;;18.14;100.00;102476.84;5112481;28;20093;-51
2023/09/04 08:29:33;;;;;;;0.00;0.00;;;;;;;18.24;100.00;102473.63;5114060;28;20040;-49
2023/09/04 08:31:58;;;;;;;0.08;0.08;;;;;;;18.50;100.00;102475.97;5117377;28;20062;-48
2023/09/04 08:34:23;;;;;;;0.00;0.00;;;;;;;18.62;100.00;102470.13;5116197;28;20023;-52
2023/09/04 08:36:49;;;;;;;0.00;0.00;;;;;;;18.70;100.00;102463.38;5117282;28;20043;-52
2023/09/04 08:39:14;;;;;;;0.00;0.00;;;;;;;18.75;100.00;102465.22;5116807;28;20090;-48
2023/09/04 08:41:41;;;;;;;0.05;0.05;;;;;;;18.88;100.00;102470.72;5116468;28;20470;-47
2023/09/04 08:44:08;;;;;;;0.07;0.07;;;;;;;18.99;100.00;102474.47;5117149;28;20368;-52
2023/09/04 08:46:34;;;;;;;0.00;0.00;;;;;;;19.11;100.00;102465.09;5116780;28;20051;-52
2023/09/04 08:49:02;;;;;;;0.10;0.10;;;;;;;19.39;100.00;102467.41;5116144;28;20047;-51
2023/09/04 08:51:29;;;;;;;0.00;0.00;;;;;;;19.51;100.00;102466.75;5116650;28;20096;-52
2023/09/04 08:53:56;;;;;;;0.08;0.08;;;;;;;19.59;100.00;102472.13;5116782;28;20016;-51
2023/09/04 08:56:21;;;;;;;0.00;0.00;;;;;;;19.71;100.00;102477.56;5115828;28;20093;-51
2023/09/04 08:58:47;;;;;;;0.10;0.10;;;;;;;19.87;100.00;102475.22;5116794;28;20039;-49
2023/09/04 09:01:14;;;;;;;0.00;0.00;;;;;;;20.02;100.00;102475.50;5115794;28;20584;-48
2023/09/04 09:03:41;;;;;;;0.00;0.00;;;;;;;20.15;100.00;102470.47;5116865;28;20098;-52
2023/09/04 09:06:07;;;;;;;0.00;0.00;;;;;;;20.44;100.00;102467.41;5116679;28;20556;-51
2023/09/04 09:08:33;;;;;;;0.00;0.00;;;;;;;20.46;100.00;102470.94;5115463;28;20023;-52
2023/09/04 09:11:01;;;;;;;0.00;0.00;;;;;;;20.53;100.00;102467.56;5116767;28;20063;-52
2023/09/04 09:13:26;;;;;;;0.00;0.00;;;;;;;20.66;97.59;102461.63;5116457;28;20054;-53
2023/09/04 09:15:53;;;;;;;0.00;0.00;;;;;;;20.89;95.80;102458.47;5115794;28;20047;-52
2023/09/04 09:18:40;;;;;;;0.00;0.00;;;;;;;21.04;98.99;102466.50;5116317;28;20034;-52
2023/09/04 09:21:21;;;;;;;0.00;0.00;;;;;;;21.28;96.43;102466.72;5116272;28;20035;-52
2023/09/04 09:23:48;;;;;;;0.00;0.00;;;;;;;21.64;93.75;102468.91;5115466;28;20367;-51
2023/09/04 09:26:14;;;;;;;0.00;0.00;;;;;;;21.86;90.44;102474.34;5115946;28;20027;-51
2023/09/04 09:28:43;;;;;;;0.00;0.00;;;;;;;21.84;90.94;102468.19;5116323;28;20024;-49
2023/09/04 09:31:08;;;;;;;0.00;0.00;;;;;;;22.24;89.63;102459.75;5115318;28;20466;-50
2023/09/04 09:33:34;;;;;;;0.00;0.00;;;;;;;22.61;87.04;102468.75;5115875;28;20020;-52
2023/09/04 09:36:02;;;;;;;0.00;0.00;;;;;;;22.78;86.37;102473.22;5116351;28;20444;-52
2023/09/04 09:38:27;;;;;;;0.00;0.00;;;;;;;23.13;83.93;102473.34;5115088;28;20080;-50
2023/09/04 09:40:55;;;;;;;0.00;0.00;;;;;;;23.43;78.84;102463.78;5115356;28;20027;-51
2023/09/04 09:43:20;;;;;;;0.00;0.00;;;;;;;23.53;75.56;102474.34;5114781;28;20020;-51
2023/09/04 09:45:49;;;;;;;0.00;0.00;;;;;;;24.04;75.44;102474.38;5115823;28;20077;-50
2023/09/04 09:48:16;;;;;;;0.00;0.00;;;;;;;24.35;75.12;102469.06;5115431;28;20024;-51
2023/09/04 09:50:41;;;;;;;0.00;0.00;;;;;;;24.68;70.43;102467.25;5115144;28;20027;-50
2023/09/04 09:53:07;;;;;;;0.00;0.00;;;;;;;25.09;68.46;102469.69;5115629;28;20035;-52
2023/09/04 09:55:34;;;;;;;0.00;0.00;;;;;;;25.48;63.86;102472.13;5115178;28;20036;-52
2023/09/04 09:58:01;;;;;;;0.00;0.00;;;;;;;26.03;65.45;102457.59;5114892;27;20490;-51
2023/09/04 10:00:27;;;;;;;0.00;0.00;;;;;;;26.03;58.87;102462.88;5115341;28;20134;-51
2023/09/04 10:02:55;;;;;;;0.00;0.00;;;;;;;25.92;58.28;102454.19;5115529;28;20047;-51
2023/09/04 10:05:25;;;;;;;0.00;0.00;;;;;;;26.82;57.25;102459.41;5114551;28;20028;-52
2023/09/04 10:07:58;;;;;;;0.00;0.00;;;;;;;27.22;56.29;102453.56;5115559;27;20027;-52
2023/09/04 10:10:24;;;;;;;0.00;0.00;;;;;;;27.69;52.75;102459.03;5115203;28;20114;-50
2023/09/04 10:13:15;;;;;;;0.00;0.00;;;;;;;28.67;53.33;102454.63;5114516;28;20027;-52
2023/09/04 10:15:46;;;;;;;0.00;0.00;;;;;;;28.86;46.91;102448.00;5115376;28;20020;-52
2023/09/04 10:18:18;;;;;;;0.00;0.00;;;;;;;29.02;46.13;102455.63;5115289;28;20077;-49
2023/09/04 10:20:44;;;;;;;0.00;0.00;;;;;;;29.04;46.63;102456.47;5114573;28;20080;-52
2023/09/04 10:23:10;;;;;;;0.00;0.00;;;;;;;28.62;45.70;102457.31;5115249;28;20019;-48
2023/09/04 10:25:39;;;;;;;0.00;0.00;;;;;;;28.86;43.66;102455.09;5113904;28;20471;-48
2023/09/04 10:28:12;;;;;;;0.00;0.00;;;;;;;28.55;45.00;102451.28;5114897;28;20484;-52
2023/09/04 10:30:41;;;;;;;0.00;0.00;;;;;;;28.64;44.52;102444.03;5115166;28;20114;-48
2023/09/04 10:33:07;;;;;;;0.00;0.00;;;;;;;28.08;41.70;102443.38;5114323;28;20525;-52
2023/09/04 10:35:33;;;;;;;0.00;0.00;;;;;;;27.49;41.95;102432.91;5114664;28;20015;-52
2023/09/04 10:37:59;;;;;;;0.00;0.00;;;;;;;27.36;44.24;102428.63;5114862;28;20382;-52
2023/09/04 10:40:26;;;;;;;0.00;0.00;;;;;;;27.17;45.08;102436.88;5113793;28;20520;-52
2023/09/04 10:42:51;;;;;;;0.00;0.00;;;;;;;28.33;44.50;102434.06;5114869;28;20064;-49
2023/09/04 10:45:20;;;;;;;0.00;0.00;;;;;;;28.11;46.96;102428.28;5114411;28;20147;-52
2023/09/04 10:47:48;;;;;;;0.00;0.00;;;;;;;28.43;41.74;102422.34;5113884;28;20019;-53
2023/09/04 10:50:30;;;;;;;0.00;0.00;;;;;;;28.19;45.01;102421.94;5114374;28;20028;-51
2023/09/04 10:53:03;;;;;;;0.00;0.00;;;;;;;28.72;43.17;102420.91;5114663;28;20035;-53
2023/09/04 10:55:29;;;;;;;0.00;0.00;;;;;;;29.03;42.56;102417.56;5113224;28;20390;-51
2023/09/04 10:57:58;;;;;;;0.00;0.00;;;;;;;28.64;40.48;102417.50;5114530;28;20028;-53
2023/09/04 11:00:29;;;;;;;0.00;0.00;;;;;;;27.83;41.79;102411.09;5114125;28;20023;-52
2023/09/04 11:02:55;;;;;;;0.00;0.00;;;;;;;27.20;43.23;102407.69;5113416;28;20027;-53
2023/09/04 11:05:21;;;;;;;0.00;0.00;;;;;;;27.17;43.43;102396.31;5113769;28;20140;-52
2023/09/04 11:07:46;;;;;;;0.00;0.00;;;;;;;27.84;44.65;102399.63;5113459;28;20027;-51
2023/09/04 11:10:14;;;;;;;0.00;0.00;;;;;;;28.53;43.89;102402.69;5114073;28;20050;-50
2023/09/04 11:12:43;;;;;;;0.00;0.00;;;;;;;29.21;42.68;102402.97;5114225;28;20551;-50
2023/09/04 11:15:15;;;;;;;0.00;0.00;;;;;;;29.79;40.49;102392.69;5113453;28;20118;-53
2023/09/04 11:17:44;;;;;;;0.00;0.00;;;;;;;29.59;40.14;102381.72;5114031;28;20023;-53